Time;durP1;ratioP1;P1;durP2;ratioP2;P2;SDS_P1;SDS_P2;PMS_P1;PMS_P2;Temp;Humidity;BMP_temperature;BMP_pressure;BME280_temperature;BME280_humidity;BME280_pressure;Samples;Min_cycle;Max_cycle;Signal;HPM_P1;HPM_P2
2021/12/23 00:00:15;;;;;;;56.65;33.38;;;-0.40;99.90;;;;;;5048038;28;20028;-54
2021/12/23 00:02:41;;;;;;;47.38;28.92;;;-0.50;99.90;;;;;;5046847;28;20036;-57
2021/12/23 00:05:11;;;;;;;45.67;31.30;;;-0.70;99.90;;;;;;5012010;28;20036;-55
2021/12/23 00:07:37;;;;;;;54.90;33.25;;;-0.80;99.90;;;;;;5044748;28;20020;-57
2021/12/23 00:10:06;;;;;;;52.38;31.92;;;-0.80;99.90;;;;;;5045727;28;20032;-59
2021/12/23 00:12:34;;;;;;;59.35;35.63;;;-1.10;99.90;;;;;;5051741;28;20496;-60
2021/12/23 00:14:59;;;;;;;53.53;31.23;;;-1.00;99.90;;;;;;5046365;28;20424;-55
2021/12/23 00:17:39;;;;;;;72.72;41.45;;;-1.20;99.90;;;;;;5062413;28;20077;-58
2021/12/23 00:25:17;;;;;;;73.65;35.95;;;;;;;;;;5044457;28;20086;-60
2021/12/23 00:27:43;;;;;;;90.07;45.20;;;-1.60;99.90;;;;;;5044968;28;20025;-62
2021/12/23 00:30:09;;;;;;;97.30;50.42;;;-1.80;99.90;;;;;;5025305;28;20034;-60
2021/12/23 00:32:36;;;;;;;93.50;49.35;;;-1.90;99.90;;;;;;5047651;28;20396;-59
2021/12/23 00:35:02;;;;;;;94.93;48.45;;;-1.70;99.90;;;;;;5045133;28;20032;-59
2021/12/23 00:37:36;;;;;;;92.05;45.83;;;-1.70;99.90;;;;;;5035536;28;20049;-54
2021/12/23 00:40:04;;;;;;;100.80;52.72;;;-1.80;99.90;;;;;;5039665;28;20175;-58
2021/12/23 00:42:32;;;;;;;81.45;48.83;;;-1.50;99.90;;;;;;5027877;28;20103;-56
2021/12/23 00:44:58;;;;;;;63.20;31.42;;;-1.40;99.90;;;;;;5043960;28;20048;-61
2021/12/23 00:47:24;;;;;;;62.75;38.63;;;-1.50;99.90;;;;;;5046451;28;20033;-55
2021/12/23 00:49:49;;;;;;;64.40;35.80;;;-1.60;99.90;;;;;;5041210;28;20035;-59
2021/12/23 00:52:18;;;;;;;57.22;33.30;;;-1.50;99.90;;;;;;5040084;28;20381;-55
2021/12/23 00:54:44;;;;;;;48.03;27.90;;;-1.30;99.90;;;;;;5040759;28;20035;-63
2021/12/23 00:57:10;;;;;;;52.55;31.40;;;-1.50;99.90;;;;;;5052256;28;20028;-55
2021/12/23 00:59:37;;;;;;;47.05;30.50;;;-1.60;99.90;;;;;;5037190;28;20049;-64
2021/12/23 01:02:07;;;;;;;51.08;32.28;;;-1.50;99.90;;;;;;5037548;28;20128;-62
2021/12/23 01:04:33;;;;;;;52.78;31.92;;;-1.50;99.90;;;;;;5024173;28;20120;-60
2021/12/23 01:06:59;;;;;;;49.90;32.58;;;-1.30;99.90;;;;;;5025137;28;20060;-55
2021/12/23 01:09:25;;;;;;;54.65;30.85;;;-1.10;99.90;;;;;;5044380;28;20053;-57
2021/12/23 01:11:51;;;;;;;51.63;32.38;;;-1.30;99.90;;;;;;5047222;28;20076;-59
2021/12/23 01:17:12;;;;;;;44.72;26.75;;;-1.50;99.90;;;;;;5026241;28;20128;-60
2021/12/23 01:19:41;;;;;;;49.50;27.48;;;-1.70;99.90;;;;;;5042192;28;20083;-59
2021/12/23 01:22:08;;;;;;;53.58;34.55;;;-1.80;99.90;;;;;;5044166;28;20485;-55
2021/12/23 01:24:34;;;;;;;47.80;28.90;;;-1.60;99.90;;;;;;5051306;28;20530;-62
2021/12/23 01:27:03;;;;;;;42.20;24.30;;;-1.60;99.90;;;;;;5046781;28;20033;-57
2021/12/23 01:29:28;;;;;;;54.13;33.20;;;-1.80;99.90;;;;;;5045574;28;20129;-65
2021/12/23 01:31:54;;;;;;;50.22;32.25;;;-1.70;99.90;;;;;;5044861;28;20100;-55
2021/12/23 01:34:20;;;;;;;50.50;29.13;;;-1.70;99.90;;;;;;5048452;28;20037;-60
2021/12/23 01:36:46;;;;;;;50.05;32.20;;;-1.70;99.90;;;;;;5045071;28;20039;-60
2021/12/23 01:39:14;;;;;;;60.90;32.35;;;-1.70;99.90;;;;;;5049598;28;20029;-64
2021/12/23 01:41:40;;;;;;;50.05;28.75;;;-1.60;99.90;;;;;;5036236;28;20037;-63
2021/12/23 01:44:06;;;;;;;40.90;23.13;;;-1.90;99.90;;;;;;5044346;28;20043;-63
2021/12/23 01:46:32;;;;;;;53.70;30.98;;;-2.10;99.90;;;;;;5048580;28;20021;-61
2021/12/23 01:48:57;;;;;;;50.58;29.63;;;-2.00;99.90;;;;;;5040109;28;20488;-59
2021/12/23 01:51:23;;;;;;;55.55;34.50;;;-2.00;99.90;;;;;;5059322;28;20045;-62
2021/12/23 01:53:49;;;;;;;59.13;36.85;;;-1.90;99.90;;;;;;5043016;28;20029;-54
2021/12/23 01:56:17;;;;;;;52.45;34.30;;;-1.70;99.90;;;;;;5049167;28;20056;-59
2021/12/23 01:58:43;;;;;;;51.90;35.00;;;-1.40;99.90;;;;;;5045526;28;20025;-54
2021/12/23 02:01:10;;;;;;;54.85;34.88;;;-1.40;99.90;;;;;;5042428;28;20045;-62
2021/12/23 02:03:37;;;;;;;51.13;34.20;;;-1.20;99.90;;;;;;5045583;28;20386;-55
2021/12/23 02:06:03;;;;;;;55.22;33.67;;;-1.20;99.90;;;;;;5060891;28;20040;-62
2021/12/23 02:08:29;;;;;;;59.53;34.35;;;-1.20;99.90;;;;;;5038431;28;20406;-61
2021/12/23 02:10:57;;;;;;;58.42;34.33;;;-1.20;99.90;;;;;;5050150;28;20025;-59
2021/12/23 02:13:23;;;;;;;32.40;17.45;;;-1.20;99.90;;;;;;5040355;28;20048;-58
2021/12/23 02:15:49;;;;;;;46.47;30.23;;;-1.50;99.90;;;;;;5041465;28;20033;-62
2021/12/23 02:18:15;;;;;;;47.47;30.48;;;-1.50;99.90;;;;;;5038889;28;20040;-61
2021/12/23 02:20:41;;;;;;;44.88;27.67;;;-1.30;99.90;;;;;;5054289;28;20037;-60
2021/12/23 02:23:09;;;;;;;43.90;25.83;;;-1.40;99.90;;;;;;5000024;28;20039;-55
2021/12/23 02:25:35;;;;;;;43.83;27.48;;;-1.60;99.90;;;;;;5048267;28;20044;-53
2021/12/23 02:28:07;;;;;;;43.60;26.20;;;-1.60;99.90;;;;;;5046088;28;20021;-58
2021/12/23 02:30:37;;;;;;;42.95;28.10;;;-1.70;99.90;;;;;;5022492;28;20059;-61
2021/12/23 02:33:05;;;;;;;41.47;27.60;;;-1.90;99.90;;;;;;5052786;28;20037;-62
2021/12/23 02:35:30;;;;;;;43.58;24.15;;;-2.00;99.90;;;;;;5045475;28;20112;-58
2021/12/23 02:37:56;;;;;;;38.80;24.27;;;-2.20;99.90;;;;;;5063348;28;20119;-60
2021/12/23 02:40:27;;;;;;;37.15;25.02;;;-2.10;99.90;;;;;;5047767;28;20171;-64
2021/12/23 02:42:54;;;;;;;38.83;24.88;;;-1.90;99.90;;;;;;5043338;28;20116;-59
2021/12/23 02:45:20;;;;;;;40.85;25.08;;;-1.90;99.90;;;;;;5048084;28;20108;-60
2021/12/23 02:47:46;;;;;;;43.72;27.23;;;-1.70;99.90;;;;;;5065192;28;20453;-56
2021/12/23 02:50:12;;;;;;;47.67;29.33;;;-1.30;99.90;;;;;;5010818;28;20120;-55
2021/12/23 02:52:38;;;;;;;46.50;28.55;;;-1.20;99.90;;;;;;5046588;28;20032;-62
2021/12/23 02:55:05;;;;;;;42.55;29.00;;;;;;;;;;5029091;28;20064;-60
2021/12/23 02:57:31;;;;;;;47.88;29.35;;;;;;;;;;5047818;28;20477;-57
2021/12/23 02:59:57;;;;;;;47.38;30.08;;;-0.70;99.90;;;;;;5053605;28;20506;-54
2021/12/23 03:02:23;;;;;;;49.72;30.83;;;-0.50;99.90;;;;;;5048571;28;20091;-62
2021/12/23 03:04:49;;;;;;;52.90;33.47;;;-0.40;99.90;;;;;;5050682;28;20025;-64
2021/12/23 03:07:16;;;;;;;54.67;34.30;;;-0.40;99.90;;;;;;5059834;28;20037;-58
2021/12/23 03:09:46;;;;;;;56.72;35.90;;;-0.70;99.90;;;;;;5049286;28;20373;-59
2021/12/23 03:12:11;;;;;;;61.15;37.05;;;-0.80;99.90;;;;;;5049283;28;20029;-58
2021/12/23 03:14:37;;;;;;;62.45;37.38;;;-0.70;99.90;;;;;;5038637;28;20090;-55
2021/12/23 03:17:03;;;;;;;63.35;38.47;;;-0.60;99.90;;;;;;5031385;28;20413;-52
2021/12/23 03:19:29;;;;;;;59.47;37.53;;;-0.50;99.90;;;;;;5054496;28;20032;-62
2021/12/23 03:21:55;;;;;;;66.93;39.35;;;-0.50;99.90;;;;;;5032279;28;20049;-64
2021/12/23 03:24:20;;;;;;;62.30;38.95;;;-0.50;99.90;;;;;;5051651;28;20602;-60
2021/12/23 03:26:46;;;;;;;55.53;33.92;;;-0.50;99.90;;;;;;5044924;28;20036;-56
2021/12/23 03:29:12;;;;;;;48.15;32.40;;;-0.70;99.90;;;;;;5044425;28;20064;-56
2021/12/23 03:31:39;;;;;;;53.78;33.10;;;-0.70;99.90;;;;;;5030459;28;20039;-62
2021/12/23 03:34:05;;;;;;;51.65;33.08;;;-0.80;99.90;;;;;;5048129;28;20032;-57
2021/12/23 03:36:31;;;;;;;55.70;34.33;;;-0.50;99.90;;;;;;5047795;28;20041;-58
2021/12/23 03:38:57;;;;;;;51.88;34.38;;;-0.50;99.90;;;;;;5046400;28;20021;-58
2021/12/23 03:41:23;;;;;;;48.38;31.73;;;-0.50;99.90;;;;;;5039219;28;20236;-62
2021/12/23 03:43:49;;;;;;;50.67;32.50;;;-0.40;99.90;;;;;;5013474;28;20049;-57
2021/12/23 03:46:15;;;;;;;50.13;33.63;;;-0.30;99.90;;;;;;5046626;28;20032;-56
2021/12/23 03:48:41;;;;;;;49.50;33.50;;;;;;;;;;5046710;28;20104;-55
2021/12/23 03:51:06;;;;;;;49.25;32.45;;;-0.20;99.90;;;;;;5044737;28;20036;-55
2021/12/23 03:53:32;;;;;;;50.25;31.80;;;-0.20;99.90;;;;;;5043032;28;20029;-56
2021/12/23 03:55:58;;;;;;;49.97;31.38;;;-0.10;99.90;;;;;;5046071;28;20056;-61
2021/12/23 03:58:24;;;;;;;49.40;30.73;;;-0.20;99.90;;;;;;5038997;28;20065;-60
2021/12/23 04:00:51;;;;;;;53.50;34.72;;;-0.60;99.90;;;;;;5048428;28;20025;-57
2021/12/23 04:03:17;;;;;;;50.05;29.92;;;-0.70;99.90;;;;;;5051368;28;20036;-53
2021/12/23 04:05:44;;;;;;;50.70;30.45;;;-1.10;99.90;;;;;;5049924;28;20049;-57
2021/12/23 04:08:10;;;;;;;58.72;38.63;;;-1.20;99.90;;;;;;5039024;28;20049;-69
2021/12/23 04:10:36;;;;;;;51.50;31.50;;;-1.20;99.90;;;;;;5044534;28;20405;-61
2021/12/23 04:13:02;;;;;;;57.95;34.45;;;-1.30;99.90;;;;;;5039827;28;20021;-65
2021/12/23 04:15:28;;;;;;;53.50;32.95;;;-1.30;99.90;;;;;;5049296;28;20496;-53
2021/12/23 04:17:54;;;;;;;56.30;32.10;;;-1.00;99.90;;;;;;5027475;28;20074;-57
2021/12/23 04:20:23;;;;;;;50.83;30.90;;;-1.20;99.90;;;;;;5042907;28;20025;-57
2021/12/23 04:22:51;;;;;;;47.63;28.55;;;-1.40;99.90;;;;;;5045767;28;20041;-54
2021/12/23 04:25:20;;;;;;;48.15;28.77;;;-1.50;99.90;;;;;;5051629;28;20025;-56
2021/12/23 04:27:48;;;;;;;51.83;31.33;;;-1.40;99.90;;;;;;5050043;28;20116;-57
2021/12/23 04:30:15;;;;;;;48.22;30.70;;;-1.50;99.90;;;;;;5050961;28;20058;-58
2021/12/23 04:32:41;;;;;;;49.95;32.03;;;-1.40;99.90;;;;;;5053139;28;20025;-55
2021/12/23 04:35:08;;;;;;;48.78;30.65;;;-1.30;99.90;;;;;;5026760;28;20113;-59
2021/12/23 04:37:34;;;;;;;52.60;30.98;;;-1.50;99.90;;;;;;5025115;28;20378;-59
2021/12/23 04:40:00;;;;;;;48.13;31.00;;;-1.70;99.90;;;;;;5009255;28;20144;-60
2021/12/23 04:42:26;;;;;;;45.22;30.65;;;-1.90;99.90;;;;;;5019464;28;20125;-58
2021/12/23 04:44:52;;;;;;;44.92;29.60;;;-1.70;99.90;;;;;;5024895;28;20454;-63
2021/12/23 04:47:18;;;;;;;46.20;29.80;;;-1.80;99.90;;;;;;5001832;28;20037;-64
2021/12/23 04:49:44;;;;;;;47.10;30.48;;;-1.70;99.90;;;;;;5020421;28;20081;-63
2021/12/23 04:52:10;;;;;;;55.20;32.58;;;-1.80;99.90;;;;;;5005060;28;20076;-55
2021/12/23 04:54:35;;;;;;;66.90;36.92;;;-1.70;99.90;;;;;;5017208;28;20141;-62
2021/12/23 04:57:01;;;;;;;65.68;38.00;;;-1.70;99.90;;;;;;5016993;28;20030;-60
2021/12/23 04:59:27;;;;;;;70.13;42.22;;;-1.80;99.90;;;;;;5022652;28;20028;-55
2021/12/23 05:01:53;;;;;;;70.18;43.25;;;-1.70;99.90;;;;;;5002702;28;20386;-61
2021/12/23 05:04:19;;;;;;;72.72;43.28;;;-1.40;99.90;;;;;;5024469;28;20553;-58
2021/12/23 05:06:44;;;;;;;60.00;37.83;;;-1.20;99.90;;;;;;5033556;28;20466;-54
2021/12/23 05:09:10;;;;;;;58.25;36.53;;;-1.30;99.90;;;;;;5023806;28;20060;-53
2021/12/23 05:11:36;;;;;;;61.20;38.00;;;-1.30;99.90;;;;;;5021241;28;20083;-62
2021/12/23 05:14:02;;;;;;;53.67;34.75;;;-1.00;99.90;;;;;;5022305;28;20365;-62
2021/12/23 05:16:27;;;;;;;47.40;32.00;;;-1.00;99.90;;;;;;5030337;28;20041;-64
2021/12/23 05:18:53;;;;;;;52.63;32.72;;;-0.70;99.90;;;;;;5041209;28;20029;-59
2021/12/23 05:21:19;;;;;;;50.60;33.58;;;-0.70;99.90;;;;;;5043323;28;20036;-59
2021/12/23 05:23:45;;;;;;;48.70;31.83;;;-0.60;99.90;;;;;;5045947;28;20028;-56
2021/12/23 05:26:10;;;;;;;50.33;31.67;;;-0.60;99.90;;;;;;5041301;28;20034;-58
2021/12/23 05:28:36;;;;;;;54.35;34.10;;;-0.50;99.90;;;;;;5040233;28;20523;-57
2021/12/23 05:31:03;;;;;;;55.55;35.50;;;-0.50;99.90;;;;;;5028284;28;20025;-58
2021/12/23 05:33:29;;;;;;;58.15;33.75;;;-0.60;99.90;;;;;;5049936;28;20111;-59
2021/12/23 05:35:55;;;;;;;60.25;35.67;;;-1.00;99.90;;;;;;5008877;28;20171;-55
2021/12/23 05:38:22;;;;;;;50.47;32.17;;;-0.90;99.90;;;;;;5044587;28;20024;-57
2021/12/23 05:40:47;;;;;;;59.63;37.10;;;-1.10;99.90;;;;;;5044295;28;20036;-57
2021/12/23 05:43:13;;;;;;;60.72;36.13;;;-1.30;99.90;;;;;;5027974;28;20033;-54
2021/12/23 05:45:39;;;;;;;52.05;34.22;;;-1.10;99.90;;;;;;5042517;28;20040;-53
2021/12/23 05:48:05;;;;;;;54.97;34.17;;;-0.80;99.90;;;;;;5043196;28;20473;-56
2021/12/23 05:50:31;;;;;;;55.53;33.28;;;-0.70;99.90;;;;;;5040469;28;20480;-59
2021/12/23 05:52:56;;;;;;;55.22;31.85;;;-0.80;99.90;;;;;;5021363;28;20140;-56
2021/12/23 05:55:23;;;;;;;53.55;30.85;;;-0.90;99.90;;;;;;4997764;28;20042;-62
2021/12/23 05:57:49;;;;;;;51.08;30.67;;;-1.00;99.90;;;;;;4946838;28;20430;-59
2021/12/23 06:00:20;;;;;;;49.60;29.77;;;-1.40;99.90;;;;;;5008949;28;20041;-62
2021/12/23 06:02:47;;;;;;;53.05;35.75;;;-1.70;99.90;;;;;;4990725;28;20057;-54
2021/12/23 06:05:13;;;;;;;56.58;34.88;;;-1.50;99.90;;;;;;5006121;28;20542;-54
2021/12/23 06:07:40;;;;;;;59.40;34.40;;;-1.30;99.90;;;;;;4982873;28;20037;-59
2021/12/23 06:10:06;;;;;;;42.22;25.23;;;-1.70;99.90;;;;;;5005392;28;20044;-58
2021/12/23 06:12:32;;;;;;;57.08;35.05;;;-2.10;99.90;;;;;;5002588;28;20049;-54
2021/12/23 06:14:58;;;;;;;54.80;30.17;;;-2.20;99.90;;;;;;4981815;28;20045;-62
2021/12/23 06:17:24;;;;;;;59.72;36.33;;;-1.90;99.90;;;;;;5004333;28;20038;-59
2021/12/23 06:19:50;;;;;;;57.33;33.20;;;-1.90;99.90;;;;;;5009062;28;20043;-59
2021/12/23 06:22:18;;;;;;;49.95;29.83;;;-1.90;99.90;;;;;;5003308;28;20042;-60
2021/12/23 06:24:45;;;;;;;55.40;33.20;;;-2.00;99.90;;;;;;4998685;28;20037;-59
2021/12/23 06:27:12;;;;;;;59.90;32.90;;;-2.10;99.90;;;;;;5049548;28;20037;-58
2021/12/23 06:29:37;;;;;;;59.55;33.55;;;-2.10;99.90;;;;;;5039064;28;20480;-57
2021/12/23 06:32:04;;;;;;;56.92;34.65;;;-2.20;99.90;;;;;;5044529;28;20041;-65
2021/12/23 06:34:29;;;;;;;54.03;32.65;;;-1.90;99.90;;;;;;5049977;28;20064;-59
2021/12/23 06:36:55;;;;;;;57.97;31.95;;;-2.00;99.90;;;;;;5040879;28;20056;-59
2021/12/23 06:39:21;;;;;;;55.95;32.25;;;-2.10;99.90;;;;;;5010134;28;20038;-58
2021/12/23 06:41:47;;;;;;;42.40;24.63;;;-2.20;99.90;;;;;;5051383;28;20040;-62
2021/12/23 06:44:13;;;;;;;65.53;36.70;;;-2.40;99.90;;;;;;5006670;28;20040;-55
2021/12/23 06:46:39;;;;;;;73.68;40.38;;;-2.30;99.90;;;;;;5043341;28;20025;-58
2021/12/23 06:49:04;;;;;;;68.32;38.97;;;-1.90;99.90;;;;;;5046575;28;20021;-59
2021/12/23 06:51:30;;;;;;;71.93;38.83;;;-1.70;99.90;;;;;;5024778;28;20481;-55
2021/12/23 06:53:58;;;;;;;65.13;38.63;;;-1.20;99.90;;;;;;5041924;28;20033;-56
2021/12/23 06:56:25;;;;;;;59.53;31.75;;;0.20;99.90;;;;;;5043561;28;20048;-59
2021/12/23 06:58:50;;;;;;;51.08;29.83;;;1.10;99.90;;;;;;5053229;28;20403;-58
2021/12/23 07:01:18;;;;;;;56.97;32.90;;;1.70;99.90;;;;;;5045609;28;20095;-60
2021/12/23 07:06:31;;;;;;;52.22;33.47;;;3.20;99.90;;;;;;5040259;28;20112;-59
2021/12/23 07:08:57;;;;;;;50.05;31.83;;;4.80;99.90;;;;;;5038869;28;20363;-58
2021/12/23 07:11:23;;;;;;;47.55;30.77;;;;;;;;;;5046224;28;20083;-55
2021/12/23 07:13:50;;;;;;;47.03;30.42;;;7.30;99.90;;;;;;5044668;28;20037;-60
2021/12/23 07:16:16;;;;;;;42.95;29.40;;;6.80;99.90;;;;;;5047860;28;20113;-56
2021/12/23 07:18:42;;;;;;;42.88;27.38;;;7.00;99.00;;;;;;5046610;28;20060;-57
2021/12/23 07:21:08;;;;;;;51.88;31.98;;;7.20;97.10;;;;;;5046344;28;20044;-57
2021/12/23 07:23:33;;;;;;;41.50;27.83;;;6.50;97.00;;;;;;5048141;28;20032;-56
2021/12/23 07:25:59;;;;;;;48.65;29.60;;;6.30;96.90;;;;;;5048121;28;20041;-62
2021/12/23 07:28:25;;;;;;;43.28;28.63;;;5.40;97.70;;;;;;5046229;28;20428;-59
2021/12/23 07:30:51;;;;;;;44.35;28.42;;;3.60;99.30;;;;;;5046354;28;20057;-64
2021/12/23 07:33:16;;;;;;;42.42;28.30;;;3.00;99.90;;;;;;5042659;28;20033;-59
2021/12/23 07:35:42;;;;;;;38.00;25.38;;;2.40;99.90;;;;;;5051542;28;20091;-56
2021/12/23 07:38:08;;;;;;;44.45;27.38;;;1.90;99.90;;;;;;5046614;28;20098;-55
2021/12/23 07:40:34;;;;;;;36.92;23.15;;;2.00;99.90;;;;;;5041123;28;20029;-61
2021/12/23 07:43:21;;;;;;;46.50;29.77;;;;;;;;;;5050668;28;20036;-57
2021/12/23 07:45:47;;;;;;;34.08;22.33;;;1.10;99.90;;;;;;5040603;28;20052;-54
2021/12/23 07:48:13;;;;;;;42.30;23.80;;;1.00;99.90;;;;;;5046567;28;20060;-60
2021/12/23 07:50:41;;;;;;;31.80;20.02;;;0.60;99.90;;;;;;5018712;28;20456;-58
2021/12/23 07:53:07;;;;;;;43.63;24.63;;;0.30;99.90;;;;;;5050019;28;20017;-58
2021/12/23 07:55:33;;;;;;;37.38;23.77;;;0.40;99.90;;;;;;5049822;28;20028;-57
2021/12/23 07:57:59;;;;;;;45.95;28.15;;;0.20;99.90;;;;;;5046075;28;20479;-58
2021/12/23 08:00:29;;;;;;;32.13;18.17;;;0.00;99.90;;;;;;5059628;28;20041;-58
2021/12/23 08:02:55;;;;;;;45.22;26.85;;;-0.10;99.90;;;;;;5046065;28;20041;-60
2021/12/23 08:05:21;;;;;;;22.38;13.57;;;;;;;;;;5038244;28;20438;-61
2021/12/23 08:07:47;;;;;;;57.53;33.40;;;-0.50;99.90;;;;;;5049061;28;20054;-65
2021/12/23 08:10:14;;;;;;;48.45;31.10;;;-0.20;99.90;;;;;;5042553;28;20017;-55
2021/12/23 08:12:40;;;;;;;56.67;32.78;;;0.20;99.90;;;;;;5038766;28;20059;-53
2021/12/23 08:15:06;;;;;;;50.15;27.15;;;0.40;99.90;;;;;;5048869;28;20081;-61
2021/12/23 08:17:32;;;;;;;53.03;32.15;;;0.30;99.90;;;;;;5045095;28;20072;-61
2021/12/23 08:19:57;;;;;;;56.55;33.25;;;0.50;99.90;;;;;;5045646;28;20025;-49
2021/12/23 08:22:23;;;;;;;55.70;32.80;;;0.90;99.90;;;;;;5030524;28;20053;-62
2021/12/23 08:24:49;;;;;;;50.65;32.58;;;0.80;99.90;;;;;;5026458;28;20038;-60
2021/12/23 08:27:15;;;;;;;56.67;33.22;;;1.40;99.90;;;;;;5015150;28;20038;-57
2021/12/23 08:29:41;;;;;;;53.08;33.00;;;1.40;99.90;;;;;;5022845;28;20069;-66
2021/12/23 08:32:07;;;;;;;52.90;30.58;;;1.70;99.90;;;;;;5030856;28;20030;-59
2021/12/23 08:34:34;;;;;;;44.03;28.40;;;1.50;99.90;;;;;;5022813;28;20038;-57
2021/12/23 08:37:01;;;;;;;38.92;26.45;;;1.40;99.90;;;;;;5029429;28;20037;-57
2021/12/23 08:39:27;;;;;;;41.25;25.58;;;1.60;99.90;;;;;;5019405;28;20040;-67
2021/12/23 08:41:53;;;;;;;45.33;31.50;;;1.50;99.90;;;;;;5013104;28;20049;-67
2021/12/23 08:44:18;;;;;;;37.22;23.38;;;1.30;99.90;;;;;;5024090;28;20042;-69
2021/12/23 08:46:44;;;;;;;35.53;22.60;;;1.10;99.90;;;;;;5017514;28;20031;-57
2021/12/23 08:49:10;;;;;;;38.38;25.50;;;1.30;99.90;;;;;;5020166;28;20381;-67
2021/12/23 08:51:37;;;;;;;49.47;34.80;;;1.20;99.90;;;;;;5031842;28;20159;-65
2021/12/23 08:54:04;;;;;;;50.40;34.85;;;1.40;99.90;;;;;;5025847;28;20049;-62
2021/12/23 08:56:30;;;;;;;46.97;27.83;;;1.30;99.90;;;;;;5002740;28;20120;-58
2021/12/23 08:58:56;;;;;;;47.70;31.17;;;1.20;99.90;;;;;;5043390;28;20055;-53
2021/12/23 09:01:22;;;;;;;53.60;34.47;;;1.30;99.90;;;;;;5057697;28;20048;-54
2021/12/23 09:03:48;;;;;;;49.85;35.63;;;1.50;99.90;;;;;;5050288;28;20021;-51
2021/12/23 09:06:14;;;;;;;41.60;30.33;;;1.70;99.90;;;;;;5045311;28;20040;-52
2021/12/23 09:08:40;;;;;;;36.25;25.17;;;2.00;99.90;;;;;;5045228;28;20110;-65
2021/12/23 09:11:06;;;;;;;38.35;26.50;;;2.10;99.90;;;;;;5037103;28;20065;-52
2021/12/23 09:13:32;;;;;;;37.20;24.73;;;2.40;99.90;;;;;;5053598;28;20034;-51
2021/12/23 09:15:59;;;;;;;37.90;25.95;;;2.50;99.90;;;;;;5038169;28;20045;-50
2021/12/23 09:18:25;;;;;;;100.35;53.00;;;2.90;99.90;;;;;;5035217;28;20479;-50
2021/12/23 09:20:52;;;;;;;205.20;154.25;;;2.60;99.90;;;;;;5019068;28;20037;-53
2021/12/23 09:23:18;;;;;;;70.45;41.03;;;2.60;99.90;;;;;;5055019;28;20048;-55
2021/12/23 09:25:46;;;;;;;63.08;39.80;;;2.70;99.90;;;;;;5038999;28;20105;-59
2021/12/23 09:33:44;;;;;;;68.07;44.53;;;2.80;99.90;;;;;;5045328;28;20182;-51
2021/12/23 09:36:10;;;;;;;58.65;36.88;;;2.60;99.90;;;;;;5039014;28;20108;-57
2021/12/23 09:38:36;;;;;;;46.95;33.92;;;2.60;99.90;;;;;;5041909;28;20036;-50
2021/12/23 09:41:09;;;;;;;55.15;34.30;;;3.00;99.90;;;;;;5039126;28;20029;-56
2021/12/23 09:43:36;;;;;;;50.03;33.25;;;3.10;99.90;;;;;;5041357;28;20478;-56
2021/12/23 09:46:04;;;;;;;64.80;42.85;;;2.80;99.90;;;;;;5035862;28;20045;-54
2021/12/23 09:48:32;;;;;;;57.22;35.67;;;2.90;99.90;;;;;;4992106;28;20049;-58
2021/12/23 09:51:02;;;;;;;47.92;31.35;;;2.90;99.90;;;;;;5038207;28;20156;-52
2021/12/23 09:53:31;;;;;;;54.65;35.50;;;2.70;99.90;;;;;;5038456;28;20029;-51
2021/12/23 09:55:58;;;;;;;48.55;28.85;;;2.70;99.90;;;;;;5042489;28;20037;-56
2021/12/23 09:58:24;;;;;;;52.17;28.92;;;2.70;99.90;;;;;;5017372;28;20138;-57
2021/12/23 10:00:51;;;;;;;40.47;27.55;;;3.00;99.90;;;;;;5045034;28;20041;-52
2021/12/23 10:03:20;;;;;;;43.95;28.50;;;3.10;99.90;;;;;;5042907;28;20595;-59
2021/12/23 10:05:46;;;;;;;43.67;27.13;;;3.30;99.90;;;;;;5025329;28;20033;-55
2021/12/23 10:08:14;;;;;;;42.50;28.95;;;3.00;99.90;;;;;;5011066;28;20099;-57
2021/12/23 10:10:53;;;;;;;38.47;25.73;;;2.90;99.90;;;;;;5040007;28;20496;-55
2021/12/23 10:30:35;;;;;;;47.03;31.67;;;2.60;99.90;;;;;;5030994;28;20041;-53
2021/12/23 10:38:23;;;;;;;63.20;36.92;;;2.70;99.90;;;;;;5028724;28;20511;-54
2021/12/23 10:40:52;;;;;;;44.28;28.25;;;2.40;99.90;;;;;;5025641;28;20029;-53
2021/12/23 10:43:43;;;;;;;33.58;20.13;;;2.20;99.90;;;;;;5031199;28;20858;-56
2021/12/23 10:46:22;;;;;;;43.28;25.38;;;2.20;99.90;;;;;;4960005;28;20096;-53
2021/12/23 11:00:32;;;;;;;46.30;28.88;;;2.00;99.90;;;;;;4911682;29;20465;-55
2021/12/23 11:03:14;;;;;;;44.17;29.58;;;2.10;99.90;;;;;;4910942;29;20055;-53
2021/12/23 11:05:48;;;;;;;42.70;28.35;;;2.20;99.90;;;;;;4904820;29;20091;-61
2021/12/23 11:08:26;;;;;;;46.30;30.45;;;2.50;99.90;;;;;;4914245;29;20597;-56
2021/12/23 11:11:17;;;;;;;48.88;32.65;;;2.30;99.90;;;;;;4911319;29;20382;-59
2021/12/23 11:37:04;;;;;;;43.38;29.00;;;2.20;99.90;;;;;;5041147;28;20040;-58
2021/12/23 11:41:53;;;;;;;30.67;17.90;;;2.60;99.90;;;;;;5041250;28;20052;-57
2021/12/23 11:44:19;;;;;;;45.22;30.80;;;2.40;99.90;;;;;;5040258;28;20040;-57
2021/12/23 11:46:55;;;;;;;48.60;30.55;;;2.60;99.90;;;;;;5044670;28;20044;-54
2021/12/23 11:49:22;;;;;;;46.90;30.35;;;2.90;99.90;;;;;;5041894;28;20051;-55
2021/12/23 11:54:19;;;;;;;44.58;30.40;;;3.20;99.90;;;;;;5046884;28;20376;-57
2021/12/23 11:56:51;;;;;;;53.85;34.45;;;3.20;99.90;;;;;;5047452;28;20132;-56
2021/12/23 11:59:18;;;;;;;46.08;33.72;;;3.40;99.90;;;;;;5056296;28;20054;-54
2021/12/23 12:01:53;;;;;;;60.30;35.25;;;3.30;99.90;;;;;;5046161;28;20114;-57
2021/12/23 12:04:29;;;;;;;49.17;31.80;;;3.30;99.90;;;;;;5042556;28;20540;-55
2021/12/23 12:06:57;;;;;;;54.50;37.63;;;3.30;99.90;;;;;;5044220;28;20486;-56
2021/12/23 12:09:31;;;;;;;57.10;36.40;;;3.70;99.90;;;;;;5037740;28;20076;-54
2021/12/23 12:11:59;;;;;;;53.80;34.78;;;4.00;99.90;;;;;;5040047;28;20443;-58
2021/12/23 12:14:40;;;;;;;54.08;32.97;;;4.30;99.90;;;;;;5052916;28;20029;-56
2021/12/23 12:17:24;;;;;;;58.58;36.03;;;4.20;99.90;;;;;;5041203;28;20032;-57
2021/12/23 12:20:05;;;;;;;54.83;33.80;;;4.10;99.90;;;;;;5043606;28;20045;-58
2021/12/23 12:22:53;;;;;;;61.03;37.80;;;4.10;99.90;;;;;;5044103;28;20072;-54
2021/12/23 12:25:25;;;;;;;48.58;32.97;;;3.90;99.90;;;;;;5040888;28;20030;-53
2021/12/23 12:27:56;;;;;;;51.70;32.33;;;4.10;99.90;;;;;;5038525;28;20037;-55
2021/12/23 12:30:45;;;;;;;48.35;31.05;;;4.30;99.90;;;;;;5048350;28;20056;-54
2021/12/23 12:33:25;;;;;;;56.85;36.60;;;4.20;99.90;;;;;;5063505;28;20513;-56
2021/12/23 12:36:05;;;;;;;63.10;39.85;;;4.20;99.90;;;;;;5037164;28;20056;-58
2021/12/23 12:38:37;;;;;;;63.17;39.97;;;4.10;99.90;;;;;;5047283;28;20388;-60
2021/12/23 12:41:05;;;;;;;;;;;4.10;99.90;;;;;;5046881;28;20021;-55
2021/12/23 12:43:40;;;;;;;56.60;36.13;;;4.10;99.90;;;;;;5039879;28;19908;-57
2021/12/23 12:46:07;;;;;;;65.75;40.45;;;4.30;99.90;;;;;;5040974;28;20044;-55
2021/12/23 12:48:54;;;;;;;59.58;37.05;;;4.40;99.90;;;;;;5049547;28;20033;-57
2021/12/23 12:51:23;;;;;;;59.05;39.60;;;4.60;99.90;;;;;;5048978;28;20020;-54
2021/12/23 12:54:03;;;;;;;48.92;32.50;;;4.60;99.90;;;;;;5045067;28;20025;-55
2021/12/23 12:56:37;;;;;;;54.38;38.03;;;4.40;99.90;;;;;;5058136;28;20042;-54
2021/12/23 12:59:07;;;;;;;53.17;34.03;;;4.50;99.90;;;;;;5052070;28;20076;-59
2021/12/23 13:01:42;;;;;;;52.22;33.55;;;4.50;99.90;;;;;;5048297;28;20437;-57
2021/12/23 13:04:30;;;;;;;45.60;31.05;;;4.30;99.90;;;;;;5041452;28;20037;-58
2021/12/23 13:07:13;;;;;;;52.97;32.97;;;4.40;99.90;;;;;;5043210;28;20588;-56
2021/12/23 13:09:51;;;;;;;96.40;46.63;;;4.50;99.90;;;;;;5050366;28;20553;-55
2021/12/23 13:12:35;;;;;;;104.63;46.58;;;4.30;99.90;;;;;;5041155;28;20037;-55
2021/12/23 13:15:21;;;;;;;100.22;48.03;;;3.90;99.90;;;;;;5053892;28;20056;-52
2021/12/23 13:17:53;;;;;;;101.20;47.25;;;3.80;99.90;;;;;;5042371;28;20048;-57
2021/12/23 13:20:41;;;;;;;93.68;47.92;;;3.90;99.90;;;;;;5061098;28;20522;-56
2021/12/23 13:23:12;;;;;;;71.82;41.50;;;3.90;99.90;;;;;;5056737;28;20045;-55
2021/12/23 13:25:47;;;;;;;58.75;37.53;;;4.10;99.90;;;;;;5046120;28;20032;-56
2021/12/23 13:28:25;;;;;;;59.80;35.47;;;4.20;99.90;;;;;;5044686;28;20032;-55
2021/12/23 13:30:51;;;;;;;55.97;35.03;;;4.10;99.90;;;;;;5040000;28;20553;-53
2021/12/23 13:33:17;;;;;;;52.72;35.03;;;4.00;99.90;;;;;;5042821;28;20032;-59
2021/12/23 13:35:43;;;;;;;48.60;30.33;;;4.00;99.90;;;;;;5045413;28;20033;-58
2021/12/23 13:38:10;;;;;;;55.05;36.17;;;3.80;99.90;;;;;;5044578;28;20045;-54
2021/12/23 13:40:40;;;;;;;51.70;34.85;;;3.80;99.90;;;;;;5048095;28;20124;-54
2021/12/23 13:43:05;;;;;;;54.72;35.70;;;3.90;99.90;;;;;;5044536;28;20459;-54
2021/12/23 13:45:31;;;;;;;54.25;34.67;;;4.00;99.90;;;;;;5055147;28;20045;-54
2021/12/23 13:47:59;;;;;;;54.75;35.40;;;4.20;99.90;;;;;;5041086;28;20095;-58
2021/12/23 13:50:27;;;;;;;56.38;37.00;;;4.30;99.90;;;;;;5044589;28;20116;-56
2021/12/23 13:52:54;;;;;;;55.33;35.83;;;4.60;99.90;;;;;;5046928;28;20107;-56
2021/12/23 13:55:25;;;;;;;58.50;35.85;;;4.70;99.90;;;;;;5047743;28;20033;-55